Time;durP1;ratioP1;P1;durP2;ratioP2;P2;SDS_P1;SDS_P2;PMS_P1;PMS_P2;Temp;Humidity;BMP_temperature;BMP_pressure;BME280_temperature;BME280_humidity;BME280_pressure;Samples;Min_cycle;Max_cycle;Signal;HPM_P1;HPM_P2
2021/07/22 00:00:42;;;;;;;11.55;7.03;;;;;;;;;;5013873;28;20049;-68
2021/07/22 00:03:08;;;;;;;10.45;7.32;;;;;;;;;;5013628;28;20092;-69
2021/07/22 00:05:34;;;;;;;11.68;7.03;;;;;;;;;;5014001;28;20065;-68
2021/07/22 00:08:00;;;;;;;9.88;6.85;;;;;;;;;;5013472;28;20021;-69
2021/07/22 00:10:26;;;;;;;12.57;7.20;;;;;;;;;;5013656;28;20084;-69
2021/07/22 00:12:52;;;;;;;9.52;6.47;;;;;;;;;;5013548;28;20026;-68
2021/07/22 00:15:18;;;;;;;17.33;6.75;;;;;;;;;;5013635;28;20022;-68
2021/07/22 00:17:44;;;;;;;21.63;7.22;;;;;;;;;;5013509;28;20018;-67
2021/07/22 00:20:10;;;;;;;14.50;7.32;;;;;;;;;;5013406;28;20025;-68
2021/07/22 00:22:37;;;;;;;11.10;6.30;;;;;;;;;;5013572;28;20593;-68
2021/07/22 00:25:04;;;;;;;15.13;7.50;;;;;;;;;;5013454;28;20037;-69
2021/07/22 00:27:30;;;;;;;11.20;6.93;;;;;;;;;;5013397;28;20032;-67
2021/07/22 00:29:57;;;;;;;10.88;6.88;;;;;;;;;;5013126;28;20036;-68
2021/07/22 00:32:22;;;;;;;11.30;6.80;;;;;;;;;;5013314;28;20029;-67
2021/07/22 00:34:48;;;;;;;14.48;6.72;;;;;;;;;;5012372;28;20017;-66
2021/07/22 00:37:14;;;;;;;13.13;7.28;;;;;;;;;;5013286;28;20033;-69
2021/07/22 00:39:40;;;;;;;10.02;6.70;;;;;;;;;;5013233;28;20026;-67
2021/07/22 00:42:05;;;;;;;10.93;6.05;;;;;;;;;;5012916;28;20022;-68
2021/07/22 00:44:31;;;;;;;11.63;6.65;;;;;;;;;;5013303;28;20076;-68
2021/07/22 00:46:57;;;;;;;15.45;7.07;;;;;;;;;;5013091;28;20029;-66
2021/07/22 00:49:23;;;;;;;15.00;6.88;;;;;;;;;;4995418;28;20018;-68
2021/07/22 00:51:49;;;;;;;9.48;6.60;;;;;;;;;;5012852;28;20467;-67
2021/07/22 00:54:15;;;;;;;11.70;6.38;;;;;;;;;;5013044;28;20113;-69
2021/07/22 00:56:41;;;;;;;10.77;7.28;;;;;;;;;;5012924;28;20502;-68
2021/07/22 00:59:07;;;;;;;11.13;7.43;;;;;;;;;;5012955;28;20029;-68
2021/07/22 01:01:33;;;;;;;12.63;6.90;;;;;;;;;;5012962;28;20048;-68
2021/07/22 01:03:58;;;;;;;10.68;6.72;;;;;;;;;;4995038;28;20050;-68
2021/07/22 01:06:24;;;;;;;11.88;8.10;;;;;;;;;;5013112;28;20406;-68
2021/07/22 01:08:50;;;;;;;10.23;7.82;;;;;;;;;;5012863;28;20356;-68
2021/07/22 01:11:17;;;;;;;9.82;7.05;;;;;;;;;;5014876;28;20048;-68
2021/07/22 01:13:42;;;;;;;11.10;6.72;;;;;;;;;;5016971;28;20022;-68
2021/07/22 01:16:08;;;;;;;12.93;6.95;;;;;;;;;;4999131;28;20022;-67
2021/07/22 01:18:34;;;;;;;12.40;7.07;;;;;;;;;;5017137;28;20535;-70
2021/07/22 01:21:00;;;;;;;10.32;7.28;;;;;;;;;;5016828;28;20506;-69
2021/07/22 01:23:25;;;;;;;10.15;6.40;;;;;;;;;;5016907;28;20053;-70
2021/07/22 01:25:51;;;;;;;9.95;6.70;;;;;;;;;;4998829;28;20026;-69
2021/07/22 01:28:17;;;;;;;13.73;7.35;;;;;;;;;;4999123;28;20571;-67
2021/07/22 01:30:44;;;;;;;11.70;6.78;;;;;;;;;;5016685;28;20120;-67
2021/07/22 01:33:10;;;;;;;9.85;6.82;;;;;;;;;;5016646;28;20017;-68
2021/07/22 01:35:37;;;;;;;14.10;7.15;;;;;;;;;;5016507;28;20530;-68
2021/07/22 01:38:02;;;;;;;10.82;6.90;;;;;;;;;;5016251;28;20018;-68
2021/07/22 01:40:29;;;;;;;11.23;7.15;;;;;;;;;;5016370;28;20014;-66
2021/07/22 01:42:55;;;;;;;10.13;6.35;;;;;;;;;;5016410;28;20021;-68
2021/07/22 01:45:20;;;;;;;13.25;7.90;;;;;;;;;;5016266;28;20108;-69
2021/07/22 01:47:46;;;;;;;10.23;7.32;;;;;;;;;;5016179;28;20192;-69
2021/07/22 01:50:12;;;;;;;15.15;8.07;;;;;;;;;;4998564;28;20037;-68
2021/07/22 01:52:38;;;;;;;10.10;7.38;;;;;;;;;;4998579;28;20025;-67
2021/07/22 01:55:04;;;;;;;12.15;6.82;;;;;;;;;;5016119;28;20037;-67
2021/07/22 01:57:31;;;;;;;10.57;7.20;;;;;;;;;;5016320;28;20024;-69
2021/07/22 02:00:04;;;;;;;12.68;6.93;;;;;;;;;;5016013;28;20022;-67
2021/07/22 02:02:31;;;;;;;13.77;7.68;;;;;;;;;;4998024;28;20042;-68
2021/07/22 02:04:57;;;;;;;12.98;7.47;;;;;;;;;;5016138;28;20022;-67
2021/07/22 02:07:23;;;;;;;14.18;7.88;;;;;;;;;;5015973;28;20080;-68
2021/07/22 02:09:49;;;;;;;13.02;7.85;;;;;;;;;;5015583;28;20017;-69
2021/07/22 02:12:15;;;;;;;12.65;7.50;;;;;;;;;;5015837;28;20456;-67
2021/07/22 02:14:42;;;;;;;14.52;7.78;;;;;;;;;;5015932;28;20107;-68
2021/07/22 02:17:08;;;;;;;13.68;8.40;;;;;;;;;;5015713;28;20429;-68
2021/07/22 02:19:34;;;;;;;14.57;7.78;;;;;;;;;;5015898;28;20018;-68
2021/07/22 02:22:00;;;;;;;12.00;7.88;;;;;;;;;;5015169;28;20483;-66
2021/07/22 02:24:25;;;;;;;10.65;7.60;;;;;;;;;;4998091;28;20026;-68
2021/07/22 02:26:50;;;;;;;12.55;7.90;;;;;;;;;;5015610;28;20024;-67
2021/07/22 02:29:16;;;;;;;10.15;7.53;;;;;;;;;;5015558;28;20496;-69
2021/07/22 02:31:42;;;;;;;12.25;7.28;;;;;;;;;;4998102;28;20033;-67
2021/07/22 02:34:08;;;;;;;10.00;7.47;;;;;;;;;;5015132;28;20014;-69
2021/07/22 02:36:33;;;;;;;15.27;8.38;;;;;;;;;;5015556;28;20044;-68
2021/07/22 02:39:00;;;;;;;10.00;7.20;;;;;;;;;;5015291;28;20022;-69
2021/07/22 02:41:27;;;;;;;10.15;7.18;;;;;;;;;;5015375;28;20030;-69
2021/07/22 02:43:52;;;;;;;10.68;7.38;;;;;;;;;;5015105;28;20040;-68
2021/07/22 02:46:19;;;;;;;12.13;7.13;;;;;;;;;;5015260;28;20526;-68
2021/07/22 02:48:44;;;;;;;11.13;8.40;;;;;;;;;;5015151;28;20088;-69
2021/07/22 02:51:11;;;;;;;11.48;8.15;;;;;;;;;;5015235;28;20022;-68
2021/07/22 02:53:37;;;;;;;11.27;7.68;;;;;;;;;;5015097;28;20049;-69
2021/07/22 02:56:04;;;;;;;9.63;7.50;;;;;;;;;;5014813;28;20034;-69
2021/07/22 02:58:29;;;;;;;11.18;7.57;;;;;;;;;;4997733;28;20022;-68
2021/07/22 03:00:55;;;;;;;14.20;7.68;;;;;;;;;;5015000;28;20060;-69
2021/07/22 03:03:22;;;;;;;10.80;8.13;;;;;;;;;;4993103;28;20444;-68
2021/07/22 03:05:48;;;;;;;14.82;8.80;;;;;;;;;;5013423;28;20490;-68
2021/07/22 03:08:14;;;;;;;14.73;8.80;;;;;;;;;;4997480;28;20470;-68
2021/07/22 03:10:43;;;;;;;15.20;8.05;;;;;;;;;;5014796;28;20033;-67
2021/07/22 03:13:09;;;;;;;16.33;7.65;;;;;;;;;;5014682;28;20072;-68
2021/07/22 03:15:34;;;;;;;21.92;8.98;;;;;;;;;;5014834;28;20026;-68
2021/07/22 03:18:00;;;;;;;18.02;9.23;;;;;;;;;;4996951;28;20441;-68
2021/07/22 03:20:27;;;;;;;13.63;8.73;;;;;;;;;;5014628;28;20048;-67
2021/07/22 03:22:53;;;;;;;12.05;7.57;;;;;;;;;;5014458;28;20499;-68
2021/07/22 03:25:19;;;;;;;11.95;6.85;;;;;;;;;;4996918;28;20030;-70
2021/07/22 03:27:45;;;;;;;14.15;8.35;;;;;;;;;;4996943;28;20029;-67
2021/07/22 03:30:11;;;;;;;13.93;8.48;;;;;;;;;;5014201;28;20057;-69
2021/07/22 03:32:38;;;;;;;13.93;9.02;;;;;;;;;;5014083;28;20054;-68
2021/07/22 03:35:04;;;;;;;15.40;9.02;;;;;;;;;;4996298;28;20022;-69
2021/07/22 03:37:30;;;;;;;18.70;8.80;;;;;;;;;;5014202;28;20101;-68
2021/07/22 03:39:57;;;;;;;18.92;11.35;;;;;;;;;;5014008;28;20053;-68
2021/07/22 03:42:27;;;;;;;51.88;30.60;;;;;;;;;;5014208;28;20018;-69
2021/07/22 03:44:53;;;;;;;112.47;70.10;;;;;;;;;;5014196;28;20112;-69
2021/07/22 03:47:19;;;;;;;86.55;51.00;;;;;;;;;;5014160;28;20010;-67
2021/07/22 03:49:46;;;;;;;78.13;47.65;;;;;;;;;;5014041;28;20562;-68
2021/07/22 03:52:12;;;;;;;80.35;51.55;;;;;;;;;;5013919;28;20021;-68
2021/07/22 03:54:39;;;;;;;101.40;56.85;;;;;;;;;;5014117;28;20040;-68
2021/07/22 03:57:05;;;;;;;97.88;54.67;;;;;;;;;;5013973;28;20386;-68
2021/07/22 03:59:31;;;;;;;67.05;41.72;;;;;;;;;;5014042;28;20022;-67
2021/07/22 04:01:57;;;;;;;55.72;31.80;;;;;;;;;;5013550;28;20029;-67
2021/07/22 04:04:23;;;;;;;30.38;18.33;;;;;;;;;;5013626;28;20140;-68
2021/07/22 04:06:49;;;;;;;23.25;14.32;;;;;;;;;;5013410;28;20086;-68
2021/07/22 04:09:15;;;;;;;25.38;12.68;;;;;;;;;;5013695;28;20112;-69
2021/07/22 04:11:41;;;;;;;15.75;11.35;;;;;;;;;;5013820;28;20155;-69
2021/07/22 04:14:07;;;;;;;18.95;10.70;;;;;;;;;;5013446;28;20029;-69
2021/07/22 04:16:33;;;;;;;18.45;9.13;;;;;;;;;;4996012;28;20505;-69
2021/07/22 04:19:00;;;;;;;17.05;8.90;;;;;;;;;;5013563;28;20018;-69
2021/07/22 04:21:25;;;;;;;13.38;8.77;;;;;;;;;;5013398;28;20014;-67
2021/07/22 04:23:51;;;;;;;11.63;7.90;;;;;;;;;;5013357;28;20479;-68
2021/07/22 04:26:17;;;;;;;16.38;8.90;;;;;;;;;;5013433;28;20021;-68
2021/07/22 04:28:43;;;;;;;13.48;8.30;;;;;;;;;;5013378;28;20028;-69
2021/07/22 04:31:16;;;;;;;18.83;8.95;;;;;;;;;;5013524;28;20058;-68
2021/07/22 04:33:42;;;;;;;14.55;7.68;;;;;;;;;;4991863;28;20022;-68
2021/07/22 04:36:08;;;;;;;13.10;8.57;;;;;;;;;;5011608;28;20029;-68
2021/07/22 04:38:37;;;;;;;16.40;7.43;;;;;;;;;;5013443;28;20018;-68
2021/07/22 04:41:06;;;;;;;15.27;7.25;;;;;;;;;;4995568;28;20048;-68
2021/07/22 04:43:32;;;;;;;11.02;6.80;;;;;;;;;;5013197;28;20482;-67
2021/07/22 04:46:04;;;;;;;13.85;7.55;;;;;;;;;;5012773;28;20040;-69
2021/07/22 04:48:31;;;;;;;11.52;7.90;;;;;;;;;;4995439;28;20383;-69
2021/07/22 04:50:57;;;;;;;16.02;7.55;;;;;;;;;;5012907;28;20025;-68
2021/07/22 04:53:24;;;;;;;9.73;7.10;;;;;;;;;;5013059;28;20483;-68
2021/07/22 04:55:49;;;;;;;11.05;7.07;;;;;;;;;;5012770;28;20101;-68
2021/07/22 04:58:15;;;;;;;14.65;7.47;;;;;;;;;;5012954;28;20114;-68
2021/07/22 05:00:41;;;;;;;11.50;7.75;;;;;;;;;;5013044;28;20029;-68
2021/07/22 05:03:08;;;;;;;11.63;7.05;;;;;;;;;;5012513;28;20048;-68
2021/07/22 05:05:35;;;;;;;10.68;7.32;;;;;;;;;;5012898;28;20479;-68
2021/07/22 05:08:01;;;;;;;10.77;6.63;;;;;;;;;;5012980;28;20029;-69
2021/07/22 05:10:27;;;;;;;15.68;6.85;;;;;;;;;;5012752;28;20387;-69
2021/07/22 05:13:00;;;;;;;17.10;7.30;;;;;;;;;;5012828;28;20010;-69
2021/07/22 05:15:26;;;;;;;12.93;6.97;;;;;;;;;;5012876;28;20018;-67
2021/07/22 05:17:52;;;;;;;10.05;6.30;;;;;;;;;;5012574;28;20427;-68
2021/07/22 05:20:19;;;;;;;12.68;7.18;;;;;;;;;;5012722;28;20022;-67
2021/07/22 05:22:44;;;;;;;13.70;7.50;;;;;;;;;;5012677;28;20037;-69
2021/07/22 05:25:11;;;;;;;17.35;7.30;;;;;;;;;;5012782;28;20014;-68
2021/07/22 05:27:37;;;;;;;16.92;7.35;;;;;;;;;;5012834;28;20108;-67
2021/07/22 05:30:04;;;;;;;14.70;6.40;;;;;;;;;;5012326;28;20109;-68
2021/07/22 05:32:29;;;;;;;12.40;6.65;;;;;;;;;;5012644;28;20072;-68
2021/07/22 05:34:54;;;;;;;17.35;7.03;;;;;;;;;;4992635;28;20410;-68
2021/07/22 05:37:20;;;;;;;22.08;7.32;;;;;;;;;;5005881;28;20025;-67
2021/07/22 05:39:46;;;;;;;12.35;7.30;;;;;;;;;;5011561;28;20071;-68
2021/07/22 05:42:12;;;;;;;18.52;7.75;;;;;;;;;;5012003;28;20022;-68
2021/07/22 05:44:37;;;;;;;12.18;7.03;;;;;;;;;;5009163;28;20060;-65
2021/07/22 05:47:04;;;;;;;19.33;7.28;;;;;;;;;;5009962;28;20128;-68
2021/07/22 05:49:30;;;;;;;12.48;6.38;;;;;;;;;;5001612;28;20030;-68
2021/07/22 05:51:56;;;;;;;19.38;8.07;;;;;;;;;;5007901;28;20021;-66
2021/07/22 05:54:21;;;;;;;10.15;6.68;;;;;;;;;;5010875;28;20017;-66
2021/07/22 05:56:47;;;;;;;14.30;6.72;;;;;;;;;;5013366;28;20033;-66
2021/07/22 05:59:13;;;;;;;9.65;7.07;;;;;;;;;;5011819;28;20474;-67
2021/07/22 06:01:39;;;;;;;14.98;6.47;;;;;;;;;;5012049;28;20014;-68
2021/07/22 06:04:04;;;;;;;14.02;6.07;;;;;;;;;;5008334;28;20083;-67
2021/07/22 06:06:30;;;;;;;9.52;5.53;;;;;;;;;;5014066;28;20026;-67
2021/07/22 06:08:56;;;;;;;9.85;5.13;;;;;;;;;;5015149;28;20030;-67
2021/07/22 06:11:22;;;;;;;9.70;5.47;;;;;;;;;;5014419;28;20041;-67
2021/07/22 06:13:47;;;;;;;8.30;4.75;;;;;;;;;;4996608;28;20018;-67
2021/07/22 06:16:14;;;;;;;9.25;5.22;;;;;;;;;;5015040;28;20079;-67
2021/07/22 06:18:40;;;;;;;11.82;5.50;;;;;;;;;;5014003;28;20026;-66
2021/07/22 06:21:06;;;;;;;12.07;5.03;;;;;;;;;;4996642;28;20021;-67
2021/07/22 06:23:31;;;;;;;10.23;6.40;;;;;;;;;;5014464;28;20026;-67
2021/07/22 06:25:57;;;;;;;8.05;4.78;;;;;;;;;;5013406;28;20029;-69
2021/07/22 06:28:24;;;;;;;12.32;5.30;;;;;;;;;;5014517;28;20029;-67
2021/07/22 06:30:50;;;;;;;8.52;5.40;;;;;;;;;;5013978;28;20030;-68
2021/07/22 06:33:16;;;;;;;9.45;5.05;;;;;;;;;;5014011;28;20032;-68
2021/07/22 06:35:42;;;;;;;10.38;4.47;;;;;;;;;;5014011;28;20389;-68
2021/07/22 06:38:07;;;;;;;8.25;4.03;;;;;;;;;;5013438;28;20109;-68
2021/07/22 06:40:34;;;;;;;9.23;4.60;;;;;;;;;;5014923;28;20085;-68
2021/07/22 06:42:59;;;;;;;7.80;4.07;;;;;;;;;;5014749;28;20025;-66
2021/07/22 06:45:25;;;;;;;5.95;3.28;;;;;;;;;;5010334;28;20033;-67
2021/07/22 06:47:50;;;;;;;5.30;3.58;;;;;;;;;;5013837;28;20542;-65
2021/07/22 06:50:16;;;;;;;9.35;3.78;;;;;;;;;;5013420;28;20037;-69
2021/07/22 06:52:41;;;;;;;5.63;3.80;;;;;;;;;;5014587;28;20022;-70
2021/07/22 06:55:07;;;;;;;11.63;4.13;;;;;;;;;;5013537;28;20022;-74
2021/07/22 06:57:33;;;;;;;10.00;4.30;;;;;;;;;;5014080;28;20014;-75
2021/07/22 06:59:59;;;;;;;10.15;4.10;;;;;;;;;;5013384;28;20080;-63
2021/07/22 07:02:24;;;;;;;8.40;4.03;;;;;;;;;;5012625;28;20033;-66
2021/07/22 07:04:49;;;;;;;9.30;3.75;;;;;;;;;;5013712;28;20503;-67
2021/07/22 07:07:16;;;;;;;6.47;3.67;;;;;;;;;;5014001;28;20148;-67
2021/07/22 07:09:42;;;;;;;7.25;4.00;;;;;;;;;;5013669;28;20018;-66
2021/07/22 07:12:09;;;;;;;6.88;3.40;;;;;;;;;;5013815;28;20036;-66
2021/07/22 07:14:34;;;;;;;8.30;3.30;;;;;;;;;;5014212;28;20474;-68
2021/07/22 07:17:00;;;;;;;6.20;3.65;;;;;;;;;;4996186;28;20030;-71
2021/07/22 07:19:25;;;;;;;12.18;5.25;;;;;;;;;;5011481;28;20031;-69
2021/07/22 07:21:51;;;;;;;14.23;4.53;;;;;;;;;;5011350;28;20196;-70
2021/07/22 07:24:16;;;;;;;5.20;3.30;;;;;;;;;;5013342;28;20036;-72
2021/07/22 07:26:42;;;;;;;825.28;749.08;;;;;;;;;;5013230;28;20383;-69
2021/07/22 07:29:07;;;;;;;505.00;459.35;;;;;;;;;;5013414;28;20489;-69
2021/07/22 07:31:32;;;;;;;107.30;99.07;;;;;;;;;;5013401;28;20033;-69
2021/07/22 07:33:58;;;;;;;34.45;17.75;;;;;;;;;;5012973;28;20407;-69
2021/07/22 07:36:23;;;;;;;15.63;6.10;;;;;;;;;;5013342;28;20030;-68
2021/07/22 07:38:49;;;;;;;11.57;5.50;;;;;;;;;;5013343;28;20054;-70
2021/07/22 07:41:14;;;;;;;146.20;136.20;;;;;;;;;;5013141;28;20030;-68
2021/07/22 07:43:40;;;;;;;35.65;32.97;;;;;;;;;;5012877;28;20025;-68
2021/07/22 07:46:05;;;;;;;26.45;7.07;;;;;;;;;;5011625;28;20034;-68
2021/07/22 07:48:30;;;;;;;181.30;167.43;;;;;;;;;;5012316;28;20367;-71
2021/07/22 07:50:56;;;;;;;322.13;299.15;;;;;;;;;;5013462;28;20045;-71
2021/07/22 07:53:21;;;;;;;28.50;26.02;;;;;;;;;;5013546;28;20386;-72
2021/07/22 07:55:49;;;;;;;37.78;15.18;;;;;;;;;;5013094;28;20498;-71
2021/07/22 07:58:14;;;;;;;13.57;7.63;;;;;;;;;;5013329;28;20022;-73
2021/07/22 08:00:41;;;;;;;17.23;4.72;;;;;;;;;;4991692;28;20045;-72
2021/07/22 08:03:15;;;;;;;24.23;6.50;;;;;;;;;;5012052;28;20550;-74
2021/07/22 08:05:40;;;;;;;14.13;4.03;;;;;;;;;;5012530;28;20022;-69
2021/07/22 08:08:06;;;;;;;14.80;4.68;;;;;;;;;;4995169;28;20026;-68
2021/07/22 08:10:31;;;;;;;36.47;7.60;;;;;;;;;;5011622;28;20037;-69
2021/07/22 08:12:57;;;;;;;18.85;5.35;;;;;;;;;;5013178;28;20028;-68
2021/07/22 08:15:22;;;;;;;177.20;163.30;;;;;;;;;;5013178;28;20014;-68
2021/07/22 08:17:47;;;;;;;999.75;917.92;;;;;;;;;;5012753;28;20030;-68
2021/07/22 08:20:13;;;;;;;550.35;505.98;;;;;;;;;;5012629;28;20018;-68
2021/07/22 08:22:38;;;;;;;466.77;429.60;;;;;;;;;;4994641;28;20330;-70
2021/07/22 08:25:05;;;;;;;743.50;683.40;;;;;;;;;;5012069;28;20050;-69
2021/07/22 08:27:34;;;;;;;728.67;669.90;;;;;;;;;;5011645;28;20022;-72
2021/07/22 08:29:59;;;;;;;712.00;654.35;;;;;;;;;;5012366;28;20020;-69
2021/07/22 08:32:25;;;;;;;751.80;691.33;;;;;;;;;;5011765;28;20108;-71
2021/07/22 08:34:50;;;;;;;759.75;699.00;;;;;;;;;;4994817;28;20029;-68
2021/07/22 08:37:16;;;;;;;754.47;693.85;;;;;;;;;;5012428;28;20038;-69
2021/07/22 08:39:44;;;;;;;706.47;650.25;;;;;;;;;;5011736;28;20025;-68
2021/07/22 08:42:10;;;;;;;760.83;699.77;;;;;;;;;;5012446;28;20025;-70
2021/07/22 08:44:36;;;;;;;803.78;739.83;;;;;;;;;;5011949;28;20283;-71
2021/07/22 08:47:01;;;;;;;800.95;736.80;;;;;;;;;;4994673;28;20107;-73
2021/07/22 08:49:27;;;;;;;799.63;735.28;;;;;;;;;;5008353;28;20418;-74
2021/07/22 08:51:53;;;;;;;698.15;642.13;;;;;;;;;;5023934;28;20036;-71
2021/07/22 08:54:18;;;;;;;878.83;807.42;;;;;;;;;;5014994;28;20021;-71
2021/07/22 08:56:45;;;;;;;792.28;723.72;;;;;;;;;;5012230;28;20379;-72
2021/07/22 08:59:11;;;;;;;777.97;715.25;;;;;;;;;;5012231;28;20025;-70
2021/07/22 09:01:36;;;;;;;785.20;722.10;;;;;;;;;;5011828;28;20813;-72
2021/07/22 09:04:03;;;;;;;739.47;679.15;;;;;;;;;;5011505;28;20049;-70
2021/07/22 09:06:28;;;;;;;731.65;672.83;;;;;;;;;;5007822;28;20049;-70
2021/07/22 09:08:54;;;;;;;348.30;323.10;;;;;;;;;;5011897;28;20046;-71
2021/07/22 09:11:20;;;;;;;700.80;644.35;;;;;;;;;;5011259;28;20025;-74
2021/07/22 09:13:49;;;;;;;699.83;643.85;;;;;;;;;;4991529;28;20442;-72
2021/07/22 09:16:15;;;;;;;576.58;531.97;;;;;;;;;;5011354;28;20056;-72
2021/07/22 09:18:45;;;;;;;763.83;699.70;;;;;;;;;;4998132;28;20018;-76
2021/07/22 09:21:23;;;;;;;839.47;757.83;;;;;;;;;;4992973;28;20101;-75
2021/07/22 09:24:08;;;;;;;636.93;581.57;;;;;;;;;;4992789;28;20022;-73
2021/07/22 09:26:34;;;;;;;512.70;472.05;;;;;;;;;;4992627;28;20365;-71
2021/07/22 09:29:00;;;;;;;898.08;814.00;;;;;;;;;;4993028;28;20020;-69
2021/07/22 09:31:26;;;;;;;1044.13;955.63;;;;;;;;;;4993532;28;20022;-69
2021/07/22 09:33:51;;;;;;;1048.05;957.03;;;;;;;;;;4996201;28;20037;-73
2021/07/22 09:36:26;;;;;;;1052.40;962.45;;;;;;;;;;4979427;28;20575;-73
2021/07/22 09:38:52;;;;;;;13.15;4.20;;;;;;;;;;4978818;28;20022;-74
2021/07/22 09:41:21;;;;;;;8.38;3.35;;;;;;;;;;4996311;28;20025;-73
2021/07/22 09:43:47;;;;;;;8.68;3.92;;;;;;;;;;4958906;28;20022;-73
2021/07/22 09:46:13;;;;;;;9.15;3.85;;;;;;;;;;4978267;28;20021;-73
2021/07/22 09:48:39;;;;;;;5.55;3.45;;;;;;;;;;4978704;28;20026;-71
2021/07/22 09:51:04;;;;;;;6.90;4.00;;;;;;;;;;4979487;28;20034;-72
2021/07/22 09:53:31;;;;;;;8.57;4.07;;;;;;;;;;4996450;28;20010;-72
2021/07/22 09:55:57;;;;;;;7.47;3.78;;;;;;;;;;4963130;28;20050;-72
2021/07/22 09:58:22;;;;;;;8.98;3.30;;;;;;;;;;4996481;28;20053;-73
2021/07/22 10:00:49;;;;;;;6.15;3.72;;;;;;;;;;4979209;28;20021;-73
2021/07/22 10:03:16;;;;;;;9.52;3.30;;;;;;;;;;4995298;28;20054;-73
2021/07/22 10:05:47;;;;;;;5.00;2.97;;;;;;;;;;4995742;28;20019;-72
2021/07/22 10:08:20;;;;;;;6.85;3.42;;;;;;;;;;4978618;28;20030;-72
2021/07/22 10:10:49;;;;;;;6.72;3.08;;;;;;;;;;4978170;28;20026;-75
2021/07/22 10:13:16;;;;;;;7.00;3.60;;;;;;;;;;4995205;28;20073;-72
2021/07/22 10:15:41;;;;;;;5.65;3.40;;;;;;;;;;4978162;28;20391;-73
2021/07/22 10:18:07;;;;;;;11.00;3.85;;;;;;;;;;4994996;28;20018;-72
2021/07/22 10:20:33;;;;;;;4.70;3.42;;;;;;;;;;4978117;28;20015;-74
2021/07/22 10:22:59;;;;;;;14.38;4.07;;;;;;;;;;4978075;28;20014;-72
2021/07/22 10:25:25;;;;;;;4.85;3.25;;;;;;;;;;4994918;28;20384;-71
2021/07/22 10:27:56;;;;;;;6.00;3.70;;;;;;;;;;4996503;28;20106;-71
2021/07/22 10:30:22;;;;;;;7.90;3.63;;;;;;;;;;5013788;28;20036;-71
2021/07/22 10:32:53;;;;;;;5.45;3.45;;;;;;;;;;4995598;28;20026;-71
2021/07/22 10:35:25;;;;;;;10.88;3.17;;;;;;;;;;5014291;28;20041;-63
2021/07/22 10:38:10;;;;;;;7.00;3.75;;;;;;;;;;5014156;28;20026;-66
2021/07/22 10:41:05;;;;;;;6.47;3.20;;;;;;;;;;5011616;28;20026;-64
2021/07/22 10:43:46;;;;;;;9.32;3.83;;;;;;;;;;5007797;28;20018;-66
2021/07/22 10:46:15;;;;;;;10.35;4.07;;;;;;;;;;5010863;28;20088;-68
2021/07/22 10:48:45;;;;;;;;;;;;;;;;;;5013888;28;20144;-68
2021/07/22 10:51:12;;;;;;;12.40;4.13;;;;;;;;;;5013979;28;20378;-66
2021/07/22 10:53:47;;;;;;;10.88;4.47;;;;;;;;;;5013655;28;20106;-66
2021/07/22 10:56:26;;;;;;;9.98;3.90;;;;;;;;;;5002591;28;20501;-66
2021/07/22 10:58:56;;;;;;;10.87;4.10;;;;;;;;;;5013866;28;20037;-65
2021/07/22 11:01:40;;;;;;;10.90;3.78;;;;;;;;;;5013068;28;20155;-66
2021/07/22 11:04:06;;;;;;;10.07;3.70;;;;;;;;;;5013199;28;20050;-64
2021/07/22 11:06:51;;;;;;;15.85;4.47;;;;;;;;;;5013269;28;20072;-65
2021/07/22 11:09:16;;;;;;;14.38;5.50;;;;;;;;;;4991242;28;20026;-65
2021/07/22 11:11:46;;;;;;;13.10;5.10;;;;;;;;;;5009841;28;20029;-64
2021/07/22 11:14:31;;;;;;;9.23;4.40;;;;;;;;;;4995969;28;20375;-65
2021/07/22 11:16:58;;;;;;;13.70;4.85;;;;;;;;;;5012700;28;20029;-65
2021/07/22 11:19:24;;;;;;;9.55;4.22;;;;;;;;;;4995667;28;20045;-65
2021/07/22 11:21:50;;;;;;;5.65;3.53;;;;;;;;;;5012879;28;20030;-71
2021/07/22 11:24:20;;;;;;;23.83;4.88;;;;;;;;;;5011841;28;20470;-70
2021/07/22 11:26:50;;;;;;;7.00;3.58;;;;;;;;;;5014151;28;20018;-70
2021/07/22 11:29:16;;;;;;;10.02;4.57;;;;;;;;;;4989694;28;20029;-69
2021/07/22 11:31:49;;;;;;;6.90;3.83;;;;;;;;;;5008079;28;20050;-69
2021/07/22 11:34:15;;;;;;;8.77;4.40;;;;;;;;;;5000401;28;20068;-68
2021/07/22 11:36:40;;;;;;;8.32;4.05;;;;;;;;;;5013714;28;20542;-65
2021/07/22 11:39:06;;;;;;;7.30;3.97;;;;;;;;;;5012089;28;20014;-65
2021/07/22 11:41:32;;;;;;;9.30;4.07;;;;;;;;;;5013806;28;20052;-65
2021/07/22 11:44:01;;;;;;;9.90;4.85;;;;;;;;;;5012305;28;20010;-66
2021/07/22 11:46:43;;;;;;;5.22;4.03;;;;;;;;;;5012006;28;20028;-66
2021/07/22 11:49:14;;;;;;;8.85;4.05;;;;;;;;;;5012628;28;20017;-65
2021/07/22 11:51:40;;;;;;;8.40;4.10;;;;;;;;;;5002932;28;20083;-66
2021/07/22 11:54:06;;;;;;;7.32;4.32;;;;;;;;;;5010909;28;20633;-66
2021/07/22 11:56:35;;;;;;;7.38;3.80;;;;;;;;;;5007246;28;20125;-65
2021/07/22 11:59:04;;;;;;;10.48;4.43;;;;;;;;;;5010123;28;20418;-65
2021/07/22 12:01:31;;;;;;;9.00;4.20;;;;;;;;;;5013841;28;20022;-66
2021/07/22 12:03:56;;;;;;;10.15;4.10;;;;;;;;;;5011072;28;20511;-66
2021/07/22 12:06:25;;;;;;;6.90;4.25;;;;;;;;;;5012187;28;20022;-66
2021/07/22 12:09:03;;;;;;;9.43;3.95;;;;;;;;;;5012216;28;20475;-65
2021/07/22 12:11:29;;;;;;;9.20;4.28;;;;;;;;;;5010775;28;20042;-65
2021/07/22 12:13:54;;;;;;;10.75;4.88;;;;;;;;;;5011505;28;20072;-65
2021/07/22 12:16:21;;;;;;;7.90;4.65;;;;;;;;;;5011445;28;20080;-62
2021/07/22 12:18:49;;;;;;;12.98;5.20;;;;;;;;;;5012023;28;20072;-62
2021/07/22 12:21:22;;;;;;;14.20;5.82;;;;;;;;;;5011674;28;20025;-62
2021/07/22 12:23:47;;;;;;;16.33;6.53;;;;;;;;;;4988918;28;20023;-63
2021/07/22 12:26:16;;;;;;;13.57;5.68;;;;;;;;;;5008885;28;20044;-62
2021/07/22 12:28:42;;;;;;;13.25;4.93;;;;;;;;;;5011478;28;21196;-70
2021/07/22 12:31:14;;;;;;;12.55;5.22;;;;;;;;;;5001816;28;20129;-71
2021/07/22 12:33:40;;;;;;;10.15;4.65;;;;;;;;;;5002380;28;20032;-70
2021/07/22 12:36:20;;;;;;;11.50;4.28;;;;;;;;;;5005511;28;20117;-70
2021/07/22 12:38:46;;;;;;;;;;;;;;;;;;4993699;28;20483;-70
2021/07/22 12:41:16;;;;;;;13.68;5.15;;;;;;;;;;5011198;28;19937;-70
2021/07/22 12:43:48;;;;;;;11.05;5.32;;;;;;;;;;4990778;28;20105;-70
2021/07/22 12:46:16;;;;;;;13.38;4.82;;;;;;;;;;5011966;28;20050;-71
2021/07/22 12:48:41;;;;;;;12.27;4.95;;;;;;;;;;4994766;28;20021;-75
2021/07/22 12:51:11;;;;;;;17.48;5.80;;;;;;;;;;5012483;28;20038;-72
2021/07/22 12:53:36;;;;;;;22.88;15.25;;;;;;;;;;4973892;28;20534;-70
2021/07/22 12:56:02;;;;;;;17.45;6.07;;;;;;;;;;5007460;28;20179;-76
2021/07/22 12:58:29;;;;;;;13.05;5.05;;;;;;;;;;4993684;28;20044;-71
2021/07/22 13:01:06;;;;;;;14.73;4.97;;;;;;;;;;5004869;28;20383;-71
2021/07/22 13:03:39;;;;;;;21.05;6.13;;;;;;;;;;4975576;28;20137;-73
2021/07/22 13:06:05;;;;;;;20.67;6.35;;;;;;;;;;5010671;28;20510;-72
2021/07/22 13:08:31;;;;;;;19.15;5.97;;;;;;;;;;5011261;28;20077;-74
2021/07/22 13:10:57;;;;;;;17.15;5.70;;;;;;;;;;4993214;28;20030;-72
2021/07/22 13:13:23;;;;;;;20.48;5.95;;;;;;;;;;5011403;28;20344;-73
2021/07/22 13:15:48;;;;;;;11.55;4.80;;;;;;;;;;5009817;28;20152;-67
2021/07/22 13:18:14;;;;;;;12.32;4.65;;;;;;;;;;5011054;28;20112;-68
2021/07/22 13:20:39;;;;;;;11.95;4.75;;;;;;;;;;5011068;28;20021;-68
2021/07/22 13:23:05;;;;;;;17.08;5.95;;;;;;;;;;5010521;28;20014;-68
2021/07/22 13:25:30;;;;;;;14.27;4.60;;;;;;;;;;5007270;28;20021;-68
2021/07/22 13:27:55;;;;;;;12.95;5.22;;;;;;;;;;5011812;28;20026;-68
2021/07/22 13:30:21;;;;;;;12.07;5.00;;;;;;;;;;5011356;28;20066;-67
2021/07/22 13:32:47;;;;;;;11.88;4.88;;;;;;;;;;5011918;28;20014;-67
2021/07/22 13:35:13;;;;;;;13.25;5.47;;;;;;;;;;5010498;28;20064;-69
2021/07/22 13:37:39;;;;;;;15.15;5.47;;;;;;;;;;5010555;28;20028;-63
2021/07/22 13:40:08;;;;;;;17.50;6.22;;;;;;;;;;5010199;28;20032;-62
2021/07/22 13:42:33;;;;;;;10.50;4.72;;;;;;;;;;5010538;28;20112;-71
2021/07/22 13:44:59;;;;;;;15.60;5.55;;;;;;;;;;5010201;28;20148;-73
2021/07/22 13:47:24;;;;;;;13.32;5.57;;;;;;;;;;4980997;28;20502;-71
2021/07/22 13:49:50;;;;;;;11.30;4.80;;;;;;;;;;4993926;28;20924;-72
2021/07/22 13:52:15;;;;;;;9.55;4.57;;;;;;;;;;5011245;28;20040;-72
2021/07/22 13:54:41;;;;;;;11.25;5.10;;;;;;;;;;5009398;28;20022;-73
2021/07/22 13:57:07;;;;;;;16.92;5.35;;;;;;;;;;5008112;28;20030;-71
2021/07/22 13:59:33;;;;;;;13.70;5.65;;;;;;;;;;4991427;28;20021;-71
2021/07/22 14:01:58;;;;;;;19.00;6.25;;;;;;;;;;5009971;28;20538;-70
2021/07/22 14:04:24;;;;;;;13.18;5.30;;;;;;;;;;5010263;28;20173;-67
2021/07/22 14:06:49;;;;;;;16.70;5.50;;;;;;;;;;5009746;28;20029;-67
2021/07/22 14:09:14;;;;;;;17.52;5.97;;;;;;;;;;5010303;28;20386;-67
2021/07/22 14:11:41;;;;;;;15.13;5.38;;;;;;;;;;5010910;28;20105;-67
2021/07/22 14:14:06;;;;;;;22.27;6.38;;;;;;;;;;5009669;28;20110;-67
2021/07/22 14:16:32;;;;;;;15.65;5.50;;;;;;;;;;5010384;28;20531;-67
2021/07/22 14:18:59;;;;;;;14.82;5.93;;;;;;;;;;5012353;28;20017;-68
2021/07/22 14:21:26;;;;;;;15.20;5.32;;;;;;;;;;5013751;28;20030;-67
2021/07/22 14:23:51;;;;;;;13.43;5.25;;;;;;;;;;5013986;28;20605;-68
2021/07/22 14:26:18;;;;;;;21.85;5.35;;;;;;;;;;5013495;28;20018;-67